createdAt,value
2023-02-16T00:00:22.499Z,5.90
2023-02-16T00:02:51.080Z,5.90
2023-02-16T00:05:26.486Z,5.90
2023-02-16T00:07:56.204Z,5.80
2023-02-16T00:10:25.437Z,5.80
2023-02-16T00:13:12.034Z,5.70
2023-02-16T00:15:42.521Z,5.70
2023-02-16T00:18:17.741Z,5.70
2023-02-16T00:20:46.318Z,5.70
2023-02-16T00:23:14.967Z,5.70
2023-02-16T00:25:43.499Z,5.70
2023-02-16T00:28:15.881Z,5.70
2023-02-16T00:30:50.262Z,5.70
2023-02-16T00:33:21.620Z,5.70
2023-02-16T00:35:50.602Z,5.70
2023-02-16T00:38:19.146Z,5.70
2023-02-16T00:40:47.909Z,5.70
2023-02-16T00:43:26.598Z,5.60
2023-02-16T00:45:57.060Z,5.60
2023-02-16T00:48:26.009Z,5.50
2023-02-16T00:50:55.257Z,5.50
2023-02-16T00:53:23.801Z,5.50
2023-02-16T00:55:52.314Z,5.50
2023-02-16T00:58:25.670Z,5.50
2023-02-16T01:00:59.378Z,5.50
2023-02-16T01:03:30.154Z,5.50
2023-02-16T01:06:12.510Z,5.50
2023-02-16T01:08:58.574Z,5.50
2023-02-16T01:11:27.847Z,5.50
2023-02-16T01:13:58.508Z,5.50
2023-02-16T01:16:39.117Z,5.60
2023-02-16T01:19:08.053Z,5.60
2023-02-16T01:21:36.663Z,5.70
2023-02-16T01:24:05.367Z,5.70
2023-02-16T01:26:38.634Z,5.70
2023-02-16T01:29:07.423Z,5.60
2023-02-16T01:31:38.217Z,5.60
2023-02-16T01:34:06.764Z,5.50
2023-02-16T01:36:38.165Z,5.50
2023-02-16T01:39:09.382Z,5.50
2023-02-16T01:42:08.229Z,5.40
2023-02-16T01:44:42.683Z,5.30
2023-02-16T01:47:31.071Z,5.30
2023-02-16T01:50:02.770Z,5.20
2023-02-16T01:52:35.672Z,5.20
2023-02-16T01:55:09.075Z,5.20
2023-02-16T01:57:42.825Z,5.10
2023-02-16T02:00:18.200Z,5.10
2023-02-16T02:02:51.389Z,5.00
2023-02-16T02:05:35.579Z,5.00
2023-02-16T02:08:22.128Z,4.90
2023-02-16T02:11:04.318Z,4.90
2023-02-16T02:13:40.967Z,4.90
2023-02-16T02:16:11.685Z,4.90
2023-02-16T02:18:41.541Z,4.80
2023-02-16T02:22:05.787Z,4.80
2023-02-16T02:25:05.274Z,4.70
2023-02-16T02:27:39.776Z,4.80
2023-02-16T02:30:41.267Z,4.80
2023-02-16T02:33:27.633Z,4.80
2023-02-16T02:36:05.567Z,4.80
2023-02-16T02:38:41.513Z,4.90
2023-02-16T02:41:19.819Z,4.80
2023-02-16T02:43:57.434Z,4.80
2023-02-16T02:46:29.609Z,4.80
2023-02-16T02:48:58.273Z,4.80
2023-02-16T02:51:29.936Z,4.80
2023-02-16T02:54:30.340Z,4.80
2023-02-16T02:57:27.091Z,4.80
2023-02-16T03:00:19.842Z,4.80
2023-02-16T03:02:52.510Z,4.80
2023-02-16T03:05:23.458Z,4.80
2023-02-16T03:07:57.423Z,4.80
2023-02-16T03:10:46.741Z,4.80
2023-02-16T03:13:21.166Z,4.80
2023-02-16T03:15:56.028Z,4.70
2023-02-16T03:18:44.483Z,4.70
2023-02-16T03:21:32.872Z,4.70
2023-02-16T03:24:21.609Z,4.60
2023-02-16T03:27:09.424Z,4.60
2023-02-16T03:29:40.451Z,4.60
2023-02-16T03:32:10.433Z,4.50
2023-02-16T03:34:39.065Z,4.50
2023-02-16T03:37:07.650Z,4.50
2023-02-16T03:39:56.729Z,4.50
2023-02-16T03:42:25.980Z,4.50
2023-02-16T03:44:54.721Z,4.50
2023-02-16T03:47:24.602Z,4.40
2023-02-16T03:49:53.036Z,4.40
2023-02-16T03:52:21.562Z,4.40
2023-02-16T03:54:50.159Z,4.30
2023-02-16T03:57:18.653Z,4.20
2023-02-16T03:59:47.031Z,4.20
2023-02-16T04:02:15.596Z,4.20
2023-02-16T04:04:45.495Z,4.20
2023-02-16T04:07:14.220Z,4.20
2023-02-16T04:09:42.630Z,4.20
2023-02-16T04:12:30.346Z,4.20
2023-02-16T04:14:58.844Z,4.20
2023-02-16T04:17:27.513Z,4.20
2023-02-16T04:19:57.355Z,4.10
2023-02-16T04:22:25.962Z,4.10
2023-02-16T04:24:54.490Z,4.10
2023-02-16T04:27:23.190Z,4.20
2023-02-16T04:29:51.842Z,4.20
2023-02-16T04:32:20.450Z,4.10
2023-02-16T04:34:48.865Z,4.10
2023-02-16T04:37:18.821Z,4.10
2023-02-16T04:39:47.286Z,4.00
2023-02-16T04:42:15.923Z,4.00
2023-02-16T04:44:44.801Z,4.00
2023-02-16T04:47:13.604Z,4.00
2023-02-16T04:49:42.075Z,3.90
2023-02-16T04:52:10.773Z,3.90
2023-02-16T04:54:40.777Z,3.90
2023-02-16T04:57:09.382Z,4.00
2023-02-16T04:59:38.000Z,4.00
2023-02-16T05:02:06.551Z,4.00
2023-02-16T05:04:34.976Z,4.00
2023-02-16T05:07:03.553Z,3.90
2023-02-16T05:09:31.984Z,3.80
2023-02-16T05:12:18.990Z,3.70
2023-02-16T05:14:47.508Z,3.70
2023-02-16T05:17:17.858Z,3.60
2023-02-16T05:19:47.972Z,3.50
2023-02-16T05:22:17.121Z,3.50
2023-02-16T05:24:46.042Z,3.50
2023-02-16T05:27:17.806Z,3.50
2023-02-16T05:29:46.280Z,3.50
2023-02-16T05:32:15.202Z,3.50
2023-02-16T05:34:45.619Z,3.50
2023-02-16T05:37:14.586Z,3.50
2023-02-16T05:39:43.104Z,3.40
2023-02-16T05:42:11.895Z,3.40
2023-02-16T05:44:41.690Z,3.40
2023-02-16T05:47:10.226Z,3.50
2023-02-16T05:49:38.671Z,3.50
2023-02-16T05:52:07.410Z,3.50
2023-02-16T05:54:35.799Z,3.50
2023-02-16T05:57:04.347Z,3.60
2023-02-16T05:59:33.352Z,3.60
2023-02-16T06:02:03.249Z,3.60
2023-02-16T06:04:32.669Z,3.70
2023-02-16T06:07:01.386Z,3.70
2023-02-16T06:09:31.384Z,3.70
2023-02-16T06:11:59.942Z,3.70
2023-02-16T06:14:28.353Z,3.70
2023-02-16T06:16:58.899Z,3.70
2023-02-16T06:19:28.752Z,3.70
2023-02-16T06:21:57.342Z,3.70
2023-02-16T06:24:27.296Z,3.70
2023-02-16T06:26:56.285Z,3.70
2023-02-16T06:29:25.001Z,3.70
2023-02-16T06:31:53.484Z,3.80
2023-02-16T06:34:22.096Z,3.80
2023-02-16T06:36:52.132Z,3.90
2023-02-16T06:39:20.714Z,4.00
2023-02-16T06:41:49.269Z,4.10
2023-02-16T06:44:18.614Z,4.20
2023-02-16T06:46:48.525Z,4.30
2023-02-16T06:49:19.499Z,4.30
2023-02-16T06:51:48.842Z,4.40
2023-02-16T06:54:19.720Z,4.50
2023-02-16T06:56:48.257Z,4.50
2023-02-16T06:59:16.904Z,4.60
2023-02-16T07:01:45.713Z,4.60
2023-02-16T07:04:15.214Z,4.70
2023-02-16T07:06:43.675Z,5.00
2023-02-16T07:09:12.961Z,5.20
2023-02-16T07:11:42.972Z,5.70
2023-02-16T07:14:11.508Z,6.60
2023-02-16T07:16:40.139Z,7.30
2023-02-16T07:19:09.146Z,8.40
2023-02-16T07:21:37.804Z,9.40
2023-02-16T07:24:06.911Z,10.30
2023-02-16T07:26:35.515Z,10.90
2023-02-16T07:29:05.543Z,11.50
2023-02-16T07:31:34.084Z,11.70
2023-02-16T07:34:02.767Z,11.90
2023-02-16T07:36:31.395Z,11.70
2023-02-16T07:39:00.000Z,11.90
2023-02-16T07:41:28.542Z,11.70
2023-02-16T07:43:57.208Z,12.10
2023-02-16T07:46:27.079Z,12.90
2023-02-16T07:48:55.637Z,13.90
2023-02-16T07:51:24.673Z,14.60
2023-02-16T07:53:55.725Z,14.70
2023-02-16T07:56:27.294Z,14.80
2023-02-16T07:58:57.311Z,14.90
2023-02-16T08:01:27.784Z,14.60
2023-02-16T08:03:56.234Z,14.20
2023-02-16T08:06:25.535Z,14.10
2023-02-16T08:08:54.389Z,14.40
2023-02-16T08:11:25.769Z,15.30
2023-02-16T08:13:54.765Z,16.20
2023-02-16T08:16:25.917Z,16.50
2023-02-16T08:18:57.808Z,15.60
2023-02-16T08:21:29.396Z,14.40
2023-02-16T08:23:59.701Z,14.60
2023-02-16T08:26:31.505Z,15.70
2023-02-16T08:29:00.222Z,16.20
2023-02-16T08:31:31.282Z,16.20
2023-02-16T08:34:03.097Z,15.00
2023-02-16T08:36:34.039Z,13.20
2023-02-16T08:39:04.233Z,13.20
2023-02-16T08:41:34.715Z,13.20
2023-02-16T08:44:03.538Z,13.20
2023-02-16T08:46:34.205Z,13.10
2023-02-16T08:49:04.179Z,12.10
2023-02-16T08:51:35.754Z,11.50
2023-02-16T08:54:06.117Z,11.20
2023-02-16T08:56:34.648Z,11.80
2023-02-16T08:59:03.444Z,12.20
2023-02-16T09:01:32.460Z,12.50
2023-02-16T09:04:01.065Z,12.70
2023-02-16T09:06:30.951Z,12.80
2023-02-16T09:08:59.461Z,13.00
2023-02-16T09:11:28.552Z,12.30
2023-02-16T09:13:57.477Z,12.50
2023-02-16T09:16:28.050Z,12.90
2023-02-16T09:18:58.254Z,13.20
2023-02-16T09:21:27.496Z,13.40
2023-02-16T09:23:58.351Z,13.50
2023-02-16T09:26:27.869Z,13.60
2023-02-16T09:28:58.797Z,13.30
2023-02-16T09:31:31.048Z,12.80
2023-02-16T09:34:02.721Z,12.90
2023-02-16T09:36:32.212Z,13.10
2023-02-16T09:39:02.506Z,13.30
2023-02-16T09:41:44.628Z,13.50
2023-02-16T09:44:23.645Z,13.60
2023-02-16T09:46:52.991Z,13.70
2023-02-16T09:49:27.638Z,13.60
2023-02-16T09:52:04.001Z,13.50
2023-02-16T09:54:43.894Z,12.90
2023-02-16T09:57:20.978Z,12.80
2023-02-16T09:59:56.312Z,13.10
2023-02-16T10:02:42.216Z,13.50
2023-02-16T10:05:20.309Z,13.70
2023-02-16T10:08:03.104Z,13.90
2023-02-16T10:10:40.334Z,14.00
2023-02-16T10:13:16.916Z,14.10
2023-02-16T10:15:47.264Z,14.00
2023-02-16T10:18:33.518Z,13.70
2023-02-16T10:21:06.190Z,13.60
2023-02-16T10:23:43.329Z,13.80
2023-02-16T10:26:20.770Z,14.00
2023-02-16T10:28:51.428Z,14.20
2023-02-16T10:31:30.185Z,14.30
2023-02-16T10:34:18.192Z,14.30
2023-02-16T10:37:05.776Z,13.80
2023-02-16T10:39:40.872Z,13.20
2023-02-16T10:42:20.464Z,13.50
2023-02-16T10:44:56.915Z,13.80
2023-02-16T10:47:34.123Z,14.10
2023-02-16T10:50:02.777Z,14.10
2023-02-16T10:52:35.693Z,14.20
2023-02-16T10:55:04.574Z,14.30
2023-02-16T10:57:34.733Z,14.30
2023-02-16T11:00:08.179Z,14.40
2023-02-16T11:02:39.917Z,14.40
2023-02-16T11:05:30.176Z,14.50
2023-02-16T11:08:01.709Z,14.40
2023-02-16T11:10:42.298Z,14.40
2023-02-16T11:13:29.570Z,14.50
2023-02-16T11:15:59.898Z,14.50
2023-02-16T11:18:36.467Z,14.40
2023-02-16T11:21:07.040Z,14.60
2023-02-16T11:23:37.068Z,14.70
2023-02-16T11:26:07.733Z,14.70
2023-02-16T11:28:40.382Z,14.70
2023-02-16T11:31:18.798Z,14.70
2023-02-16T11:33:58.684Z,14.70
2023-02-16T11:36:33.610Z,14.00
2023-02-16T11:39:07.033Z,13.90
2023-02-16T11:41:36.735Z,14.30
2023-02-16T11:44:22.379Z,14.60
2023-02-16T11:46:50.880Z,14.80
2023-02-16T11:49:29.711Z,14.90
2023-02-16T11:51:58.789Z,14.90
2023-02-16T11:54:27.847Z,15.10
2023-02-16T11:57:05.322Z,15.20
2023-02-16T11:59:38.805Z,15.10
2023-02-16T12:02:43.986Z,15.10
2023-02-16T12:05:24.729Z,15.10
2023-02-16T12:08:09.856Z,15.00
2023-02-16T12:10:44.951Z,14.80
2023-02-16T12:13:23.247Z,14.50
2023-02-16T12:16:01.361Z,13.60
2023-02-16T12:18:39.144Z,13.60
2023-02-16T12:21:19.666Z,14.20
2023-02-16T12:24:03.680Z,14.50
2023-02-16T12:26:41.611Z,14.70
2023-02-16T12:29:34.972Z,15.00
2023-02-16T12:32:21.942Z,15.10
2023-02-16T12:35:00.378Z,14.90
2023-02-16T12:37:35.790Z,14.40
2023-02-16T12:40:14.354Z,13.70
2023-02-16T12:42:57.193Z,13.80
2023-02-16T12:45:28.922Z,14.10
2023-02-16T12:48:02.563Z,14.40
2023-02-16T12:50:34.509Z,14.70
2023-02-16T12:53:09.395Z,14.80
2023-02-16T12:55:44.141Z,14.70
2023-02-16T12:58:21.021Z,14.60
2023-02-16T13:00:53.521Z,13.70
2023-02-16T13:03:34.885Z,13.80
2023-02-16T13:06:17.528Z,14.30
2023-02-16T13:08:49.621Z,14.60
2023-02-16T13:11:23.401Z,14.70
2023-02-16T13:13:54.562Z,14.60
2023-02-16T13:16:30.886Z,13.80
2023-02-16T13:19:00.861Z,13.70
2023-02-16T13:22:00.148Z,14.00
2023-02-16T13:24:40.569Z,14.30
2023-02-16T13:27:23.959Z,14.60
2023-02-16T13:30:03.700Z,14.30
2023-02-16T13:32:51.215Z,13.90
2023-02-16T13:35:37.249Z,13.80
2023-02-16T13:38:25.832Z,13.90
2023-02-16T13:41:33.035Z,13.90
2023-02-16T13:44:04.701Z,14.20
2023-02-16T13:46:37.917Z,14.40
2023-02-16T13:49:06.891Z,14.60
2023-02-16T13:51:46.302Z,14.70
2023-02-16T13:54:28.385Z,14.70
2023-02-16T13:56:57.002Z,14.60
2023-02-16T14:00:05.590Z,14.50
2023-02-16T14:03:00.679Z,14.30
2023-02-16T14:05:33.772Z,14.10
2023-02-16T14:08:16.805Z,14.10
2023-02-16T14:11:06.708Z,14.20
2023-02-16T14:13:46.278Z,14.20
2023-02-16T14:16:32.588Z,14.20
2023-02-16T14:19:06.980Z,14.00
2023-02-16T14:21:41.932Z,13.60
2023-02-16T14:24:23.254Z,13.80
2023-02-16T14:26:59.277Z,14.20
2023-02-16T14:29:32.611Z,14.40
2023-02-16T14:32:06.398Z,14.50
2023-02-16T14:34:41.445Z,14.50
2023-02-16T14:37:29.281Z,14.30
2023-02-16T14:40:12.772Z,14.20
2023-02-16T14:42:50.251Z,14.10
2023-02-16T14:45:54.911Z,14.20
2023-02-16T14:48:36.997Z,14.00
2023-02-16T14:51:35.316Z,13.80
2023-02-16T14:54:42.260Z,13.40
2023-02-16T14:57:17.448Z,13.00
2023-02-16T14:59:52.160Z,13.40
2023-02-16T15:02:28.895Z,13.70
2023-02-16T15:04:58.337Z,14.00
2023-02-16T15:07:29.135Z,14.10
2023-02-16T15:10:00.300Z,14.10
2023-02-16T15:12:41.269Z,14.10
2023-02-16T15:15:18.944Z,14.00
2023-02-16T15:17:49.137Z,13.90
2023-02-16T15:20:31.339Z,13.80
2023-02-16T15:23:01.429Z,13.70
2023-02-16T15:25:32.778Z,13.20
2023-02-16T15:28:05.464Z,13.50
2023-02-16T15:30:35.493Z,13.70
2023-02-16T15:33:06.805Z,13.80
2023-02-16T15:35:39.904Z,13.70
2023-02-16T15:38:20.199Z,13.70
2023-02-16T15:41:09.956Z,13.40
2023-02-16T15:43:46.417Z,13.50
2023-02-16T15:46:23.953Z,13.70
2023-02-16T15:48:52.597Z,13.80
2023-02-16T15:51:26.707Z,13.70
2023-02-16T15:53:57.976Z,13.60
2023-02-16T15:56:31.268Z,13.20
2023-02-16T15:59:03.245Z,13.10
2023-02-16T16:01:35.394Z,13.10
2023-02-16T16:04:08.775Z,13.20
2023-02-16T16:06:40.578Z,13.10
2023-02-16T16:09:15.024Z,12.90
2023-02-16T16:11:43.685Z,12.70
2023-02-16T16:14:14.761Z,12.60
2023-02-16T16:16:44.919Z,12.60
2023-02-16T16:19:17.568Z,12.50
2023-02-16T16:21:51.745Z,12.00
2023-02-16T16:24:34.094Z,11.80
2023-02-16T16:27:06.253Z,11.60
2023-02-16T16:29:41.449Z,11.70
2023-02-16T16:32:20.690Z,11.70
2023-02-16T16:34:50.446Z,11.70
2023-02-16T16:37:27.975Z,11.30
2023-02-16T16:40:04.333Z,11.00
2023-02-16T16:42:34.076Z,11.10
2023-02-16T16:45:09.167Z,11.20
2023-02-16T16:47:39.679Z,11.20
2023-02-16T16:50:30.669Z,11.20
2023-02-16T16:52:59.301Z,10.90
2023-02-16T16:55:31.026Z,10.80
2023-02-16T16:58:01.557Z,10.80
2023-02-16T17:00:35.322Z,10.80
2023-02-16T17:03:05.576Z,10.80
2023-02-16T17:05:34.343Z,10.80
2023-02-16T17:08:02.832Z,10.40
2023-02-16T17:10:31.461Z,10.10
2023-02-16T17:13:01.032Z,10.10
2023-02-16T17:15:43.262Z,10.20
2023-02-16T17:18:16.176Z,10.30
2023-02-16T17:20:45.279Z,10.30
2023-02-16T17:23:14.933Z,9.90
2023-02-16T17:25:44.293Z,9.60
2023-02-16T17:28:13.826Z,9.70
2023-02-16T17:30:44.588Z,9.70
2023-02-16T17:33:13.818Z,9.80
2023-02-16T17:35:44.401Z,9.80
2023-02-16T17:38:15.233Z,9.80
2023-02-16T17:40:44.493Z,9.60
2023-02-16T17:43:13.897Z,9.70
2023-02-16T17:45:44.599Z,9.70
2023-02-16T17:48:17.264Z,9.70
2023-02-16T17:50:46.290Z,9.70
2023-02-16T17:53:15.823Z,9.70
2023-02-16T17:55:44.694Z,9.70
2023-02-16T17:58:13.289Z,9.70
2023-02-16T18:00:43.522Z,9.60
2023-02-16T18:03:12.340Z,9.50
2023-02-16T18:05:41.146Z,9.50
2023-02-16T18:08:09.736Z,9.50
2023-02-16T18:10:42.575Z,9.40
2023-02-16T18:13:12.222Z,9.30
2023-02-16T18:15:42.703Z,9.30
2023-02-16T18:18:13.554Z,9.20
2023-02-16T18:20:42.464Z,9.20
2023-02-16T18:23:11.367Z,9.20
2023-02-16T18:25:41.488Z,9.20
2023-02-16T18:28:12.945Z,9.20
2023-02-16T18:30:41.765Z,9.20
2023-02-16T18:33:10.652Z,9.10
2023-02-16T18:35:40.887Z,9.10
2023-02-16T18:38:09.595Z,9.00
2023-02-16T18:40:38.085Z,9.00
2023-02-16T18:43:06.624Z,8.90
2023-02-16T18:45:35.051Z,8.90
2023-02-16T18:48:03.862Z,8.80
2023-02-16T18:50:32.826Z,8.70
2023-02-16T18:53:02.984Z,8.60
2023-02-16T18:55:33.252Z,8.50
2023-02-16T18:58:02.370Z,8.50
2023-02-16T19:00:30.879Z,8.50
2023-02-16T19:02:59.837Z,8.40
2023-02-16T19:05:28.562Z,8.40
2023-02-16T19:07:57.113Z,8.30
2023-02-16T19:10:27.528Z,8.30
2023-02-16T19:12:56.031Z,8.30
2023-02-16T19:15:25.102Z,8.30
2023-02-16T19:17:53.678Z,8.20
2023-02-16T19:20:22.433Z,8.20
2023-02-16T19:22:50.986Z,8.10
2023-02-16T19:25:19.720Z,8.00
2023-02-16T19:27:49.746Z,8.00
2023-02-16T19:30:21.618Z,8.00
2023-02-16T19:32:50.355Z,7.90
2023-02-16T19:35:19.196Z,7.90
2023-02-16T19:37:47.927Z,7.90
2023-02-16T19:40:17.006Z,8.00
2023-02-16T19:42:45.777Z,8.00
2023-02-16T19:45:15.816Z,8.00
2023-02-16T19:47:44.240Z,8.00
2023-02-16T19:50:12.949Z,8.00
2023-02-16T19:52:41.353Z,7.90
2023-02-16T19:55:11.490Z,7.90
2023-02-16T19:57:40.227Z,7.90
2023-02-16T20:00:11.640Z,7.80
2023-02-16T20:02:44.680Z,7.70
2023-02-16T20:05:13.660Z,7.60
2023-02-16T20:07:42.194Z,7.60
2023-02-16T20:10:11.073Z,7.60
2023-02-16T20:12:39.682Z,7.60
2023-02-16T20:15:08.830Z,7.60
2023-02-16T20:17:37.625Z,7.60
2023-02-16T20:20:08.674Z,7.60
2023-02-16T20:22:37.248Z,7.60
2023-02-16T20:25:06.291Z,7.50
2023-02-16T20:27:35.680Z,7.60
2023-02-16T20:30:06.345Z,7.60
2023-02-16T20:32:35.754Z,7.60
2023-02-16T20:35:07.368Z,7.70
2023-02-16T20:37:37.403Z,7.70
2023-02-16T20:40:06.663Z,7.70
2023-02-16T20:42:35.426Z,7.80
2023-02-16T20:45:04.122Z,7.80
2023-02-16T20:47:33.206Z,7.80
2023-02-16T20:50:01.697Z,7.90
2023-02-16T20:52:30.353Z,7.90
2023-02-16T20:55:00.544Z,7.90
2023-02-16T20:57:29.191Z,7.90
2023-02-16T20:59:57.747Z,7.90
2023-02-16T21:02:26.420Z,7.90
2023-02-16T21:04:55.018Z,7.80
2023-02-16T21:07:23.580Z,7.80
2023-02-16T21:09:52.135Z,7.90
2023-02-16T21:12:21.887Z,7.90
2023-02-16T21:14:50.428Z,7.80
2023-02-16T21:17:19.520Z,7.80
2023-02-16T21:19:48.114Z,7.70
2023-02-16T21:22:16.831Z,7.70
2023-02-16T21:24:45.530Z,7.70
2023-02-16T21:27:14.163Z,7.70
2023-02-16T21:29:44.537Z,7.70
2023-02-16T21:32:13.340Z,7.70
2023-02-16T21:34:41.877Z,7.70
2023-02-16T21:37:10.409Z,7.60
2023-02-16T21:39:56.542Z,7.70
2023-02-16T21:42:25.245Z,7.70
2023-02-16T21:45:12.450Z,7.60
2023-02-16T21:47:59.348Z,7.60
2023-02-16T21:50:28.944Z,7.50
2023-02-16T21:52:58.245Z,7.50
2023-02-16T21:55:44.354Z,7.50
2023-02-16T21:58:13.186Z,7.40
2023-02-16T22:00:43.883Z,7.40
2023-02-16T22:03:14.325Z,7.30
2023-02-16T22:05:42.820Z,7.20
2023-02-16T22:08:14.006Z,7.20
2023-02-16T22:10:42.896Z,7.20
2023-02-16T22:13:11.666Z,7.10
2023-02-16T22:15:40.378Z,7.00
2023-02-16T22:18:10.417Z,7.00
2023-02-16T22:20:38.910Z,6.90
2023-02-16T22:23:07.607Z,6.90
2023-02-16T22:25:39.995Z,6.80
2023-02-16T22:28:08.572Z,6.70
2023-02-16T22:30:37.716Z,6.70
2023-02-16T22:33:06.242Z,6.60
2023-02-16T22:35:36.754Z,6.60
2023-02-16T22:38:05.643Z,6.60
2023-02-16T22:40:34.113Z,6.70
2023-02-16T22:43:02.634Z,6.70
2023-02-16T22:45:31.176Z,6.70
2023-02-16T22:47:59.744Z,6.80
2023-02-16T22:50:28.346Z,6.70
2023-02-16T22:52:58.250Z,6.70
2023-02-16T22:55:26.746Z,6.70
2023-02-16T22:57:55.226Z,6.70
2023-02-16T23:00:23.714Z,6.70
2023-02-16T23:02:52.178Z,6.70
2023-02-16T23:05:20.575Z,6.70
2023-02-16T23:07:49.103Z,6.70
2023-02-16T23:10:19.053Z,6.70
2023-02-16T23:12:47.614Z,6.70
2023-02-16T23:15:16.069Z,6.60
2023-02-16T23:17:44.579Z,6.60
2023-02-16T23:20:13.382Z,6.60
2023-02-16T23:22:41.978Z,6.60
2023-02-16T23:25:27.668Z,6.50
2023-02-16T23:27:57.632Z,6.50
2023-02-16T23:30:26.105Z,6.50
2023-02-16T23:32:54.872Z,6.50
2023-02-16T23:35:23.495Z,6.50
2023-02-16T23:37:52.006Z,6.60
2023-02-16T23:40:20.727Z,6.60
2023-02-16T23:42:49.539Z,6.60
2023-02-16T23:45:19.521Z,6.50
2023-02-16T23:47:48.006Z,6.50
2023-02-16T23:50:16.555Z,6.50
2023-02-16T23:52:45.438Z,6.40
2023-02-16T23:55:13.862Z,6.40
2023-02-16T23:57:42.332Z,6.30
